JRR9211 EGJJ-EGPH
Flight info
| Callsign | JRR9211 |
|---|---|
| Flight time | 1h 16m |
| Altitude | 35000 |
| Route | SKERY L22 EMWIP P16 FIMCA DCT BHD DCT WIGGU DCT AZCAL DCT AVTIC DCT ANJAK N38 NOKIN UP16 RIBEL DCT INPIP |
| Aircraft | B738/M-SDGIRWY/S |
Departure
| Time | 2026-04-20 17:54 |
|---|---|
| Airport | Jersey Airport (EGJJ) |
Arrival
| Time | 2026-04-20 19:10 |
|---|---|
| Airport | Edinburgh Airport (EGPH) |
| Time | Latitude | Longitude | Altitude | Speed | Heading |
|---|---|---|---|---|---|
| 2026-04-20 17:21 | 49.20491 | -2.19735 | 283 ft | 0 kts | 353° |
| 2026-04-20 17:45 | 49.20490 | -2.19735 | 285 ft | 2 kts | 353° |
| 2026-04-20 17:45 | 49.20466 | -2.19727 | 289 ft | 4 kts | 333° |
| 2026-04-20 17:45 | 49.20447 | -2.19703 | 292 ft | 4 kts | 292° |
| 2026-04-20 17:46 | 49.20444 | -2.19679 | 283 ft | 0 kts | 264° |
| 2026-04-20 17:50 | 49.20442 | -2.19703 | 287 ft | 6 kts | 264° |
| 2026-04-20 17:51 | 49.20435 | -2.19813 | 283 ft | 14 kts | 264° |
| 2026-04-20 17:51 | 49.20466 | -2.19915 | 283 ft | 13 kts | 346° |
| 2026-04-20 17:51 | 49.20526 | -2.20016 | 285 ft | 15 kts | 288° |
| 2026-04-20 17:51 | 49.20559 | -2.20197 | 283 ft | 19 kts | 287° |
| 2026-04-20 17:52 | 49.20587 | -2.20339 | 283 ft | 0 kts | 287° |
| 2026-04-20 17:52 | 49.20595 | -2.20381 | 283 ft | 12 kts | 287° |
| 2026-04-20 17:52 | 49.20624 | -2.20570 | 283 ft | 17 kts | 274° |
| 2026-04-20 17:53 | 49.20648 | -2.20692 | 285 ft | 11 kts | 321° |
| 2026-04-20 17:53 | 49.20702 | -2.20654 | 282 ft | 9 kts | 70° |
| 2026-04-20 17:53 | 49.20737 | -2.20288 | 282 ft | 74 kts | 82° |
| 2026-04-20 17:53 | 49.20839 | -2.19118 | 291 ft | 144 kts | 81° |
| 2026-04-20 17:54 | 49.21043 | -2.17522 | 995 ft | 150 kts | 76° |
| 2026-04-20 17:54 | 49.21212 | -2.16020 | 2095 ft | 145 kts | 81° |
| 2026-04-20 17:54 | 49.21517 | -2.14421 | 2584 ft | 171 kts | 65° |
| 2026-04-20 17:54 | 49.22263 | -2.12833 | 2901 ft | 200 kts | 48° |
| 2026-04-20 17:55 | 49.23484 | -2.11576 | 3220 ft | 224 kts | 27° |
| 2026-04-20 17:55 | 49.25094 | -2.11074 | 3561 ft | 252 kts | 2° |
| 2026-04-20 17:55 | 49.26837 | -2.11788 | 4158 ft | 271 kts | 333° |
| 2026-04-20 17:55 | 49.28339 | -2.13600 | 5050 ft | 275 kts | 320° |
| 2026-04-20 17:56 | 49.29733 | -2.15560 | 6121 ft | 270 kts | 319° |
| 2026-04-20 17:56 | 49.31092 | -2.17495 | 7049 ft | 270 kts | 318° |
| 2026-04-20 17:56 | 49.32493 | -2.19495 | 7884 ft | 273 kts | 318° |
| 2026-04-20 17:56 | 49.33875 | -2.21468 | 8690 ft | 276 kts | 317° |
| 2026-04-20 17:57 | 49.35285 | -2.23481 | 9540 ft | 278 kts | 317° |
| 2026-04-20 17:57 | 49.36708 | -2.25512 | 10351 ft | 282 kts | 317° |
| 2026-04-20 17:57 | 49.38187 | -2.27622 | 10709 ft | 302 kts | 317° |
| 2026-04-20 17:57 | 49.39787 | -2.29906 | 10899 ft | 325 kts | 317° |
| 2026-04-20 17:58 | 49.41480 | -2.32325 | 11346 ft | 338 kts | 317° |
| 2026-04-20 17:58 | 49.43207 | -2.34792 | 12099 ft | 340 kts | 316° |
| 2026-04-20 17:58 | 49.44943 | -2.37274 | 12964 ft | 341 kts | 316° |
| 2026-04-20 17:58 | 49.46685 | -2.39765 | 13786 ft | 343 kts | 316° |
| 2026-04-20 17:59 | 49.48415 | -2.42244 | 14470 ft | 346 kts | 316° |
| 2026-04-20 17:59 | 49.50179 | -2.44774 | 15158 ft | 348 kts | 316° |
| 2026-04-20 17:59 | 49.51959 | -2.47328 | 15819 ft | 352 kts | 316° |
| 2026-04-20 17:59 | 49.53753 | -2.49906 | 16486 ft | 355 kts | 315° |
| 2026-04-20 18:00 | 49.55560 | -2.52505 | 17151 ft | 357 kts | 315° |
| 2026-04-20 18:00 | 49.57389 | -2.55137 | 17806 ft | 361 kts | 315° |
| 2026-04-20 18:00 | 49.59230 | -2.57791 | 18450 ft | 364 kts | 315° |
| 2026-04-20 18:00 | 49.61086 | -2.60468 | 19030 ft | 366 kts | 315° |
| 2026-04-20 18:01 | 49.62924 | -2.63123 | 19625 ft | 367 kts | 315° |
| 2026-04-20 18:01 | 49.64794 | -2.65826 | 20214 ft | 369 kts | 315° |
| 2026-04-20 18:01 | 49.66671 | -2.68544 | 20796 ft | 371 kts | 314° |
| 2026-04-20 18:01 | 49.68558 | -2.71278 | 21353 ft | 374 kts | 314° |
| 2026-04-20 18:02 | 49.70461 | -2.74039 | 21902 ft | 376 kts | 314° |
| 2026-04-20 18:02 | 49.72367 | -2.76807 | 22450 ft | 378 kts | 314° |
| 2026-04-20 18:02 | 49.74283 | -2.79594 | 22996 ft | 380 kts | 314° |
| 2026-04-20 18:02 | 49.76222 | -2.82416 | 23518 ft | 382 kts | 313° |
| 2026-04-20 18:03 | 49.78161 | -2.85243 | 23986 ft | 385 kts | 313° |
| 2026-04-20 18:03 | 49.80114 | -2.88092 | 24423 ft | 386 kts | 313° |
| 2026-04-20 18:03 | 49.82045 | -2.90913 | 24847 ft | 388 kts | 313° |
| 2026-04-20 18:03 | 49.84009 | -2.93786 | 25257 ft | 390 kts | 313° |
| 2026-04-20 18:04 | 49.85987 | -2.96681 | 25654 ft | 392 kts | 313° |
| 2026-04-20 18:04 | 49.87973 | -2.99593 | 26053 ft | 394 kts | 313° |
| 2026-04-20 18:04 | 49.89968 | -3.02521 | 26439 ft | 396 kts | 313° |
| 2026-04-20 18:04 | 49.91976 | -3.05472 | 26830 ft | 398 kts | 313° |
| 2026-04-20 18:05 | 49.95983 | -3.11369 | 27546 ft | 402 kts | 313° |
| 2026-04-20 18:05 | 49.98017 | -3.14369 | 27900 ft | 404 kts | 313° |
| 2026-04-20 18:05 | 49.99937 | -3.17552 | 28237 ft | 403 kts | 306° |
| 2026-04-20 18:06 | 50.01531 | -3.21126 | 28586 ft | 402 kts | 298° |
| 2026-04-20 18:06 | 50.02919 | -3.24904 | 28931 ft | 403 kts | 297° |
| 2026-04-20 18:06 | 50.04482 | -3.28544 | 29232 ft | 409 kts | 307° |
| 2026-04-20 18:06 | 50.06474 | -3.31733 | 29548 ft | 414 kts | 315° |
| 2026-04-20 18:07 | 50.08745 | -3.34501 | 29993 ft | 417 kts | 322° |
| 2026-04-20 18:07 | 50.11285 | -3.36711 | 30463 ft | 418 kts | 328° |
| 2026-04-20 18:07 | 50.13882 | -3.38741 | 30834 ft | 417 kts | 329° |
| 2026-04-20 18:07 | 50.16487 | -3.40761 | 31107 ft | 419 kts | 329° |
| 2026-04-20 18:08 | 50.19050 | -3.42781 | 31393 ft | 419 kts | 328° |
| 2026-04-20 18:08 | 50.21646 | -3.44859 | 31731 ft | 418 kts | 328° |
| 2026-04-20 18:08 | 50.24223 | -3.46923 | 32103 ft | 417 kts | 330° |
| 2026-04-20 18:08 | 50.26953 | -3.48538 | 32410 ft | 422 kts | 340° |
| 2026-04-20 18:09 | 50.29833 | -3.49533 | 32756 ft | 426 kts | 347° |
| 2026-04-20 18:09 | 50.32798 | -3.49904 | 33105 ft | 430 kts | 356° |
| 2026-04-20 18:09 | 50.35783 | -3.49731 | 33496 ft | 429 kts | 358° |
| 2026-04-20 18:09 | 50.38725 | -3.49507 | 33857 ft | 427 kts | 358° |
| 2026-04-20 18:10 | 50.41687 | -3.49154 | 34199 ft | 428 kts | 1° |
| 2026-04-20 18:10 | 50.44640 | -3.48623 | 34505 ft | 427 kts | 2° |
| 2026-04-20 18:10 | 50.47588 | -3.48041 | 34733 ft | 427 kts | 2° |
| 2026-04-20 18:10 | 50.50545 | -3.47446 | 34955 ft | 428 kts | 2° |
| 2026-04-20 18:11 | 50.53496 | -3.46855 | 35192 ft | 427 kts | 2° |
| 2026-04-20 18:11 | 50.56452 | -3.46274 | 35231 ft | 431 kts | 2° |
| 2026-04-20 18:11 | 50.62406 | -3.45123 | 35242 ft | 431 kts | 1° |
| 2026-04-20 18:12 | 50.68302 | -3.43989 | 35230 ft | 423 kts | 1° |
| 2026-04-20 18:12 | 50.74086 | -3.42881 | 35248 ft | 421 kts | 1° |
| 2026-04-20 18:13 | 50.79901 | -3.41766 | 35240 ft | 420 kts | 1° |
| 2026-04-20 18:13 | 50.85706 | -3.40649 | 35242 ft | 420 kts | 1° |
| 2026-04-20 18:14 | 50.91502 | -3.39529 | 35242 ft | 419 kts | 1° |
| 2026-04-20 18:14 | 50.97251 | -3.38416 | 35235 ft | 419 kts | 1° |
| 2026-04-20 18:15 | 51.03042 | -3.37292 | 35231 ft | 419 kts | 1° |
| 2026-04-20 18:15 | 51.08816 | -3.36168 | 35232 ft | 420 kts | 1° |
| 2026-04-20 18:16 | 51.14623 | -3.35035 | 35229 ft | 420 kts | 1° |
| 2026-04-20 18:16 | 51.20397 | -3.33905 | 35245 ft | 421 kts | 1° |
| 2026-04-20 18:17 | 51.26200 | -3.32742 | 35241 ft | 422 kts | 1° |
| 2026-04-20 18:17 | 51.32029 | -3.31563 | 35243 ft | 422 kts | 1° |
| 2026-04-20 18:18 | 51.37861 | -3.30381 | 35243 ft | 423 kts | 1° |
| 2026-04-20 18:18 | 51.43700 | -3.29197 | 35245 ft | 423 kts | 1° |
| 2026-04-20 18:19 | 51.49545 | -3.28009 | 35245 ft | 424 kts | 1° |
| 2026-04-20 18:19 | 51.55376 | -3.26821 | 35240 ft | 425 kts | 1° |
| 2026-04-20 18:20 | 51.61232 | -3.25625 | 35237 ft | 425 kts | 1° |
| 2026-04-20 18:20 | 51.67099 | -3.24423 | 35304 ft | 425 kts | 1° |
| 2026-04-20 18:21 | 51.72955 | -3.23221 | 35314 ft | 424 kts | 1° |
| 2026-04-20 18:21 | 51.78776 | -3.22023 | 35318 ft | 425 kts | 1° |
| 2026-04-20 18:22 | 51.84643 | -3.20812 | 35308 ft | 425 kts | 1° |
| 2026-04-20 18:22 | 51.90513 | -3.19610 | 35295 ft | 425 kts | 360° |
| 2026-04-20 18:23 | 51.96387 | -3.18979 | 35280 ft | 422 kts | 356° |
| 2026-04-20 18:23 | 52.02258 | -3.18623 | 35266 ft | 423 kts | 356° |
| 2026-04-20 18:24 | 52.08104 | -3.18240 | 35256 ft | 425 kts | 356° |
| 2026-04-20 18:24 | 52.14022 | -3.17805 | 35260 ft | 426 kts | 357° |
| 2026-04-20 18:25 | 52.19950 | -3.17348 | 35257 ft | 427 kts | 357° |
| 2026-04-20 18:25 | 52.25898 | -3.16887 | 35262 ft | 429 kts | 357° |
| 2026-04-20 18:26 | 52.31859 | -3.16425 | 35263 ft | 430 kts | 357° |
| 2026-04-20 18:26 | 52.37805 | -3.15963 | 35262 ft | 431 kts | 358° |
| 2026-04-20 18:27 | 52.43799 | -3.15496 | 35255 ft | 432 kts | 358° |
| 2026-04-20 18:27 | 52.49804 | -3.15028 | 35248 ft | 432 kts | 358° |
| 2026-04-20 18:28 | 52.55820 | -3.14557 | 35258 ft | 432 kts | 358° |
| 2026-04-20 18:28 | 52.61787 | -3.14088 | 35265 ft | 433 kts | 358° |
| 2026-04-20 18:29 | 52.67796 | -3.13616 | 35260 ft | 433 kts | 358° |
| 2026-04-20 18:29 | 52.73761 | -3.11802 | 35267 ft | 442 kts | 15° |
| 2026-04-20 18:30 | 52.79395 | -3.07532 | 35266 ft | 446 kts | 22° |
| 2026-04-20 18:30 | 52.84970 | -3.03009 | 35267 ft | 446 kts | 21° |
| 2026-04-20 18:31 | 52.90593 | -2.98649 | 35263 ft | 445 kts | 18° |
| 2026-04-20 18:31 | 52.96371 | -2.95086 | 35288 ft | 443 kts | 15° |
| 2026-04-20 18:32 | 53.02236 | -2.91652 | 35525 ft | 448 kts | 16° |
| 2026-04-20 18:32 | 53.05147 | -2.89881 | 35818 ft | 446 kts | 17° |
| 2026-04-20 18:32 | 53.08016 | -2.88116 | 36084 ft | 444 kts | 17° |
| 2026-04-20 18:33 | 53.10949 | -2.86300 | 36295 ft | 444 kts | 17° |
| 2026-04-20 18:33 | 53.13820 | -2.84522 | 36286 ft | 448 kts | 18° |
| 2026-04-20 18:33 | 53.19654 | -2.80900 | 36290 ft | 447 kts | 18° |
| 2026-04-20 18:34 | 53.25457 | -2.77287 | 36295 ft | 443 kts | 18° |
| 2026-04-20 18:34 | 53.31216 | -2.73693 | 36283 ft | 441 kts | 18° |
| 2026-04-20 18:35 | 53.36910 | -2.70130 | 36295 ft | 439 kts | 18° |
| 2026-04-20 18:35 | 53.42631 | -2.66540 | 36294 ft | 439 kts | 18° |
| 2026-04-20 18:36 | 53.48352 | -2.62945 | 36298 ft | 440 kts | 18° |
| 2026-04-20 18:36 | 53.54088 | -2.59339 | 36305 ft | 441 kts | 18° |
| 2026-04-20 18:37 | 53.59850 | -2.55705 | 36310 ft | 443 kts | 18° |
| 2026-04-20 18:37 | 53.65636 | -2.52043 | 36310 ft | 445 kts | 18° |
| 2026-04-20 18:38 | 53.71451 | -2.48347 | 36314 ft | 447 kts | 19° |
| 2026-04-20 18:38 | 53.77375 | -2.45222 | 36305 ft | 445 kts | 5° |
| 2026-04-20 18:39 | 53.83456 | -2.45638 | 36311 ft | 441 kts | 346° |
| 2026-04-20 18:39 | 53.89415 | -2.48094 | 36321 ft | 441 kts | 345° |
| 2026-04-20 18:40 | 53.95378 | -2.50548 | 36323 ft | 441 kts | 345° |
| 2026-04-20 18:40 | 54.01334 | -2.53005 | 36268 ft | 440 kts | 345° |
| 2026-04-20 18:41 | 54.04251 | -2.54214 | 35984 ft | 435 kts | 345° |
| 2026-04-20 18:41 | 54.07167 | -2.55424 | 35747 ft | 428 kts | 345° |
| 2026-04-20 18:41 | 54.10037 | -2.56618 | 35510 ft | 423 kts | 345° |
| 2026-04-20 18:41 | 54.12890 | -2.57806 | 35276 ft | 420 kts | 345° |
| 2026-04-20 18:42 | 54.18540 | -2.60167 | 35070 ft | 422 kts | 345° |
| 2026-04-20 18:42 | 54.21394 | -2.61362 | 34850 ft | 421 kts | 345° |
| 2026-04-20 18:42 | 54.24226 | -2.62549 | 34617 ft | 417 kts | 345° |
| 2026-04-20 18:43 | 54.27037 | -2.63728 | 34390 ft | 413 kts | 345° |
| 2026-04-20 18:43 | 54.29809 | -2.64893 | 34131 ft | 410 kts | 345° |
| 2026-04-20 18:43 | 54.32530 | -2.66038 | 33864 ft | 407 kts | 345° |
| 2026-04-20 18:43 | 54.35274 | -2.67194 | 33598 ft | 405 kts | 345° |
| 2026-04-20 18:44 | 54.38010 | -2.68349 | 33332 ft | 403 kts | 345° |
| 2026-04-20 18:44 | 54.40721 | -2.69494 | 33068 ft | 401 kts | 345° |
| 2026-04-20 18:44 | 54.43433 | -2.70641 | 32809 ft | 399 kts | 345° |
| 2026-04-20 18:44 | 54.46110 | -2.71775 | 32508 ft | 394 kts | 345° |
| 2026-04-20 18:45 | 54.48759 | -2.72899 | 32146 ft | 391 kts | 345° |
| 2026-04-20 18:45 | 54.51358 | -2.74003 | 31784 ft | 388 kts | 345° |
| 2026-04-20 18:45 | 54.53961 | -2.75111 | 31411 ft | 386 kts | 345° |
| 2026-04-20 18:45 | 54.56569 | -2.76222 | 31039 ft | 383 kts | 345° |
| 2026-04-20 18:46 | 54.59147 | -2.77321 | 30674 ft | 381 kts | 345° |
| 2026-04-20 18:46 | 54.61711 | -2.78416 | 30287 ft | 379 kts | 345° |
| 2026-04-20 18:46 | 54.64260 | -2.79506 | 29854 ft | 376 kts | 345° |
| 2026-04-20 18:46 | 54.66788 | -2.80589 | 29458 ft | 372 kts | 345° |
| 2026-04-20 18:47 | 54.69286 | -2.81661 | 29080 ft | 369 kts | 345° |
| 2026-04-20 18:47 | 54.71765 | -2.82724 | 28708 ft | 365 kts | 345° |
| 2026-04-20 18:47 | 54.74188 | -2.83766 | 28326 ft | 362 kts | 345° |
| 2026-04-20 18:47 | 54.76625 | -2.84815 | 27966 ft | 359 kts | 345° |
| 2026-04-20 18:48 | 54.79040 | -2.85857 | 27586 ft | 356 kts | 345° |
| 2026-04-20 18:48 | 54.81433 | -2.86889 | 27229 ft | 353 kts | 345° |
| 2026-04-20 18:48 | 54.83809 | -2.87914 | 26871 ft | 351 kts | 345° |
| 2026-04-20 18:48 | 54.86170 | -2.88935 | 26515 ft | 348 kts | 345° |
| 2026-04-20 18:49 | 54.88499 | -2.90017 | 26109 ft | 347 kts | 341° |
| 2026-04-20 18:49 | 54.90745 | -2.91494 | 25624 ft | 351 kts | 337° |
| 2026-04-20 18:49 | 54.93021 | -2.93204 | 25151 ft | 354 kts | 336° |
| 2026-04-20 18:49 | 54.95260 | -2.94924 | 24670 ft | 358 kts | 336° |
| 2026-04-20 18:50 | 54.97543 | -2.96657 | 24178 ft | 360 kts | 336° |
| 2026-04-20 18:50 | 54.99845 | -2.98376 | 23631 ft | 362 kts | 337° |
| 2026-04-20 18:50 | 55.02164 | -3.00086 | 23051 ft | 361 kts | 337° |
| 2026-04-20 18:50 | 55.04469 | -3.01775 | 22557 ft | 357 kts | 338° |
| 2026-04-20 18:51 | 55.06753 | -3.03445 | 22051 ft | 353 kts | 338° |
| 2026-04-20 18:51 | 55.09003 | -3.05088 | 21562 ft | 350 kts | 338° |
| 2026-04-20 18:51 | 55.11231 | -3.06718 | 21082 ft | 346 kts | 338° |
| 2026-04-20 18:51 | 55.13411 | -3.08314 | 20599 ft | 342 kts | 338° |
| 2026-04-20 18:52 | 55.15593 | -3.09915 | 20107 ft | 338 kts | 339° |
| 2026-04-20 18:52 | 55.17747 | -3.11494 | 19587 ft | 335 kts | 339° |
| 2026-04-20 18:52 | 55.19882 | -3.13060 | 19085 ft | 332 kts | 339° |
| 2026-04-20 18:52 | 55.22004 | -3.14617 | 18582 ft | 329 kts | 339° |
| 2026-04-20 18:53 | 55.24102 | -3.16158 | 18013 ft | 326 kts | 339° |
| 2026-04-20 18:53 | 55.26184 | -3.17691 | 17520 ft | 322 kts | 339° |
| 2026-04-20 18:53 | 55.28239 | -3.19205 | 17008 ft | 319 kts | 339° |
| 2026-04-20 18:53 | 55.30347 | -3.20282 | 16507 ft | 314 kts | 359° |
| 2026-04-20 18:54 | 55.32524 | -3.20164 | 16078 ft | 314 kts | 7° |
| 2026-04-20 18:54 | 55.34688 | -3.19820 | 15575 ft | 318 kts | 8° |
| 2026-04-20 18:54 | 55.36905 | -3.19433 | 15092 ft | 322 kts | 8° |
| 2026-04-20 18:54 | 55.39123 | -3.19050 | 14577 ft | 319 kts | 8° |
| 2026-04-20 18:55 | 55.41321 | -3.18681 | 14072 ft | 315 kts | 8° |
| 2026-04-20 18:55 | 55.43487 | -3.18327 | 13545 ft | 311 kts | 7° |
| 2026-04-20 18:55 | 55.45627 | -3.17983 | 13070 ft | 306 kts | 7° |
| 2026-04-20 18:55 | 55.47737 | -3.17647 | 12600 ft | 301 kts | 7° |
| 2026-04-20 18:56 | 55.49812 | -3.17319 | 12127 ft | 297 kts | 7° |
| 2026-04-20 18:56 | 55.51825 | -3.17001 | 11692 ft | 293 kts | 7° |
| 2026-04-20 18:56 | 55.53849 | -3.16681 | 11230 ft | 291 kts | 7° |
| 2026-04-20 18:56 | 55.55853 | -3.16364 | 10772 ft | 288 kts | 7° |
| 2026-04-20 18:57 | 55.57837 | -3.16051 | 10336 ft | 285 kts | 7° |
| 2026-04-20 18:57 | 55.59797 | -3.15742 | 9854 ft | 282 kts | 7° |
| 2026-04-20 18:57 | 55.61734 | -3.15437 | 9430 ft | 277 kts | 7° |
| 2026-04-20 18:57 | 55.63638 | -3.15135 | 8998 ft | 273 kts | 7° |
| 2026-04-20 18:58 | 55.65517 | -3.14839 | 8575 ft | 270 kts | 7° |
| 2026-04-20 18:58 | 55.67375 | -3.14545 | 8159 ft | 267 kts | 7° |
| 2026-04-20 18:58 | 55.69211 | -3.14330 | 7744 ft | 264 kts | 358° |
| 2026-04-20 18:58 | 55.70931 | -3.15261 | 7388 ft | 264 kts | 328° |
| 2026-04-20 18:59 | 55.72167 | -3.17548 | 7225 ft | 258 kts | 299° |
| 2026-04-20 18:59 | 55.72695 | -3.20524 | 7064 ft | 249 kts | 281° |
| 2026-04-20 18:59 | 55.72985 | -3.23537 | 6921 ft | 248 kts | 279° |
| 2026-04-20 18:59 | 55.73127 | -3.26597 | 6738 ft | 249 kts | 271° |
| 2026-04-20 19:00 | 55.73120 | -3.29720 | 6291 ft | 252 kts | 270° |
| 2026-04-20 19:00 | 55.73095 | -3.32794 | 6090 ft | 248 kts | 269° |
| 2026-04-20 19:00 | 55.73066 | -3.35831 | 5921 ft | 244 kts | 269° |
| 2026-04-20 19:00 | 55.73037 | -3.38822 | 5784 ft | 242 kts | 269° |
| 2026-04-20 19:01 | 55.73009 | -3.41766 | 5656 ft | 241 kts | 269° |
| 2026-04-20 19:01 | 55.73108 | -3.44729 | 5514 ft | 240 kts | 279° |
| 2026-04-20 19:01 | 55.73354 | -3.47663 | 5397 ft | 240 kts | 279° |
| 2026-04-20 19:01 | 55.73599 | -3.50546 | 5273 ft | 232 kts | 279° |
| 2026-04-20 19:02 | 55.73835 | -3.53309 | 5120 ft | 222 kts | 279° |
| 2026-04-20 19:02 | 55.74062 | -3.55956 | 4975 ft | 211 kts | 279° |
| 2026-04-20 19:02 | 55.74279 | -3.58499 | 4898 ft | 208 kts | 279° |
| 2026-04-20 19:02 | 55.74500 | -3.61021 | 4779 ft | 210 kts | 283° |
| 2026-04-20 19:03 | 55.75158 | -3.63251 | 4666 ft | 202 kts | 319° |
| 2026-04-20 19:03 | 55.76227 | -3.64821 | 4580 ft | 200 kts | 324° |
| 2026-04-20 19:03 | 55.77316 | -3.66376 | 4444 ft | 202 kts | 324° |
| 2026-04-20 19:03 | 55.78415 | -3.67949 | 4328 ft | 203 kts | 324° |
| 2026-04-20 19:04 | 55.79514 | -3.69525 | 4221 ft | 204 kts | 324° |
| 2026-04-20 19:04 | 55.80613 | -3.71104 | 4074 ft | 202 kts | 324° |
| 2026-04-20 19:04 | 55.81810 | -3.72309 | 3981 ft | 196 kts | 356° |
| 2026-04-20 19:04 | 55.83044 | -3.71813 | 3995 ft | 184 kts | 44° |
| 2026-04-20 19:05 | 55.83838 | -3.70039 | 4000 ft | 183 kts | 58° |
| 2026-04-20 19:05 | 55.84540 | -3.68198 | 3975 ft | 182 kts | 59° |
| 2026-04-20 19:05 | 55.85219 | -3.66267 | 3769 ft | 186 kts | 61° |
| 2026-04-20 19:05 | 55.85886 | -3.64303 | 3526 ft | 185 kts | 61° |
| 2026-04-20 19:06 | 55.86535 | -3.62372 | 3288 ft | 180 kts | 61° |
| 2026-04-20 19:06 | 55.87171 | -3.60478 | 3035 ft | 176 kts | 61° |
| 2026-04-20 19:06 | 55.87792 | -3.58630 | 2792 ft | 172 kts | 61° |
| 2026-04-20 19:06 | 55.88402 | -3.56814 | 2544 ft | 169 kts | 62° |
| 2026-04-20 19:07 | 55.88999 | -3.55037 | 2316 ft | 166 kts | 62° |
| 2026-04-20 19:07 | 55.89572 | -3.53337 | 2093 ft | 157 kts | 62° |
| 2026-04-20 19:07 | 55.90114 | -3.51726 | 1915 ft | 146 kts | 62° |
| 2026-04-20 19:07 | 55.90632 | -3.50186 | 1697 ft | 142 kts | 61° |
| 2026-04-20 19:08 | 55.91134 | -3.48694 | 1484 ft | 141 kts | 62° |
| 2026-04-20 19:08 | 55.92141 | -3.45699 | 1059 ft | 138 kts | 58° |
| 2026-04-20 19:08 | 55.92645 | -3.44235 | 757 ft | 138 kts | 60° |
| 2026-04-20 19:09 | 55.93141 | -3.42791 | 599 ft | 135 kts | 58° |
| 2026-04-20 19:09 | 55.93611 | -3.41368 | 435 ft | 130 kts | 60° |
| 2026-04-20 19:09 | 55.94087 | -3.39977 | 295 ft | 136 kts | 58° |
| 2026-04-20 19:09 | 55.94572 | -3.38502 | 114 ft | 137 kts | 59° |
| 2026-04-20 19:10 | 55.94993 | -3.37269 | 105 ft | 89 kts | 59° |
| 2026-04-20 19:10 | 55.95200 | -3.36657 | 108 ft | 29 kts | 58° |
| 2026-04-20 19:10 | 55.95261 | -3.36473 | 105 ft | 8 kts | 72° |
| 2026-04-20 19:10 | 55.95234 | -3.36396 | 105 ft | 7 kts | 143° |
| 2026-04-20 19:11 | 55.95199 | -3.36358 | 106 ft | 5 kts | 148° |
| 2026-04-20 19:11 | 55.95177 | -3.36334 | 106 ft | 0 kts | 149° |
| 2026-04-20 19:12 | 55.95162 | -3.36315 | 106 ft | 8 kts | 140° |
| 2026-04-20 19:12 | 55.95124 | -3.36165 | 105 ft | 18 kts | 108° |
| 2026-04-20 19:12 | 55.95092 | -3.35996 | 105 ft | 10 kts | 111° |
| 2026-04-20 19:13 | 55.95063 | -3.35892 | 105 ft | 9 kts | 118° |
| 2026-04-20 19:13 | 55.95019 | -3.35843 | 106 ft | 7 kts | 180° |
| 2026-04-20 19:13 | 55.94975 | -3.35866 | 106 ft | 6 kts | 189° |
| 2026-04-20 19:13 | 55.94932 | -3.35839 | 105 ft | 7 kts | 140° |
| 2026-04-20 19:14 | 55.94905 | -3.35770 | 106 ft | 7 kts | 120° |
| 2026-04-20 19:14 | 55.94885 | -3.35730 | 106 ft | 1 kts | 187° |
| 2026-04-20 19:14 | 55.94856 | -3.35740 | 106 ft | 7 kts | 193° |
| 2026-04-20 19:14 | 55.94814 | -3.35774 | 105 ft | 4 kts | 211° |
| 2026-04-20 19:15 | 55.94809 | -3.35778 | 106 ft | 0 kts | 211° |